Time;durP1;ratioP1;P1;durP2;ratioP2;P2;SDS_P1;SDS_P2;PMS_P1;PMS_P2;Temp;Humidity;BMP_temperature;BMP_pressure;BME280_temperature;BME280_humidity;BME280_pressure;Samples;Min_cycle;Max_cycle;Signal;HPM_P1;HPM_P2
2023/07/18 00:00:18;;;;;;;4.97;2.70;;;;;;;14.85;97.40;101894.88;4969819;28;20026;-71
2023/07/18 00:02:44;;;;;;;8.85;2.80;;;;;;;14.79;97.65;101890.31;4971028;28;20548;-71
2023/07/18 00:05:12;;;;;;;4.88;2.53;;;;;;;14.76;97.64;101895.81;4989205;28;20037;-71
2023/07/18 00:07:41;;;;;;;5.70;2.55;;;;;;;14.76;97.84;101894.03;5009906;28;20603;-71
2023/07/18 00:10:11;;;;;;;5.90;3.10;;;;;;;14.78;97.76;101889.47;4991798;28;20041;-71
2023/07/18 00:12:38;;;;;;;4.35;2.83;;;;;;;14.78;97.54;101888.66;4989061;28;20252;-71
2023/07/18 00:15:06;;;;;;;6.82;3.20;;;;;;;14.75;97.76;101896.81;4968577;28;20034;-71
2023/07/18 00:17:33;;;;;;;7.93;2.80;;;;;;;14.71;97.95;101893.69;4970929;28;20042;-71
2023/07/18 00:20:04;;;;;;;7.22;2.58;;;;;;;14.63;98.18;101892.84;4988358;28;20549;-71
2023/07/18 00:22:29;;;;;;;7.15;2.95;;;;;;;14.60;98.24;101889.56;5007453;28;20121;-71
2023/07/18 00:24:55;;;;;;;6.65;3.15;;;;;;;14.58;98.14;101898.53;5007778;28;20116;-71
2023/07/18 00:27:20;;;;;;;4.95;2.78;;;;;;;14.57;98.09;101892.47;4994679;28;20030;-71
2023/07/18 00:29:46;;;;;;;7.38;3.20;;;;;;;14.54;97.96;101892.78;5004839;28;20496;-70
2023/07/18 00:32:12;;;;;;;5.70;3.15;;;;;;;14.51;98.19;101893.06;4991940;28;20052;-71
2023/07/18 00:34:40;;;;;;;6.30;3.05;;;;;;;14.49;98.24;101896.81;4980420;28;20033;-71
2023/07/18 00:37:06;;;;;;;5.82;2.70;;;;;;;14.47;98.13;101894.34;4973908;28;20031;-71
2023/07/18 00:39:31;;;;;;;7.45;3.13;;;;;;;14.46;97.98;101895.31;4992828;28;20040;-71
2023/07/18 00:41:57;;;;;;;7.55;2.78;;;;;;;14.40;98.06;101891.53;4989129;28;20041;-70
2023/07/18 00:44:22;;;;;;;5.10;2.92;;;;;;;14.36;98.35;101897.22;4992710;28;20504;-71
2023/07/18 00:46:50;;;;;;;9.80;3.45;;;;;;;14.34;98.48;101891.34;4993212;28;20053;-71
2023/07/18 00:49:16;;;;;;;6.28;3.60;;;;;;;14.31;98.37;101883.81;4992269;28;20057;-70
2023/07/18 00:51:41;;;;;;;8.93;4.25;;;;;;;14.28;98.34;101884.97;4983181;28;20045;-70
2023/07/18 00:54:07;;;;;;;6.13;3.25;;;;;;;14.28;98.29;101881.50;4987647;28;20030;-70
2023/07/18 00:56:33;;;;;;;6.57;2.90;;;;;;;14.29;98.33;101880.56;4986066;28;20038;-70
2023/07/18 00:58:58;;;;;;;6.85;3.10;;;;;;;14.30;98.16;101875.19;4991001;28;20030;-70
2023/07/18 01:01:24;;;;;;;14.65;3.17;;;;;;;14.32;98.21;101877.66;4993285;28;20030;-70
2023/07/18 01:03:49;;;;;;;9.80;3.38;;;;;;;14.32;97.71;101869.81;4993447;28;20176;-70
2023/07/18 01:06:16;;;;;;;6.45;3.15;;;;;;;14.32;97.32;101864.59;4993215;28;20398;-71
2023/07/18 01:08:42;;;;;;;10.35;2.92;;;;;;;14.26;97.58;101873.03;4992727;28;20037;-71
2023/07/18 01:11:08;;;;;;;8.13;3.28;;;;;;;14.24;97.50;101870.59;4990390;28;20033;-71
2023/07/18 01:13:34;;;;;;;4.55;2.65;;;;;;;14.24;97.50;101869.75;4978171;28;20045;-70
2023/07/18 01:16:00;;;;;;;5.45;2.53;;;;;;;14.20;97.33;101867.47;4989736;28;20125;-70
2023/07/18 01:18:26;;;;;;;7.95;2.85;;;;;;;14.14;97.42;101862.03;4993140;28;20018;-70
2023/07/18 01:20:53;;;;;;;8.35;3.75;;;;;;;14.07;97.51;101861.00;4974644;28;20488;-71
2023/07/18 01:23:21;;;;;;;6.15;2.97;;;;;;;14.01;97.74;101860.66;4990355;28;20026;-70
2023/07/18 01:25:46;;;;;;;7.65;3.28;;;;;;;13.98;98.14;101862.75;4971633;28;20037;-70
2023/07/18 01:28:12;;;;;;;10.20;2.85;;;;;;;14.00;98.06;101858.22;4990357;28;20032;-71
2023/07/18 01:30:38;;;;;;;8.90;2.67;;;;;;;14.01;98.00;101859.81;4990785;28;20586;-71
2023/07/18 01:33:04;;;;;;;10.15;3.08;;;;;;;14.01;97.63;101857.22;5004986;28;20061;-70
2023/07/18 01:35:30;;;;;;;8.27;2.78;;;;;;;14.00;97.45;101860.81;4989889;28;20093;-70
2023/07/18 01:37:57;;;;;;;6.15;2.67;;;;;;;13.98;97.39;101850.53;5005300;28;20072;-70
2023/07/18 01:40:23;;;;;;;9.48;2.83;;;;;;;13.95;97.27;101853.44;4992397;28;20036;-70
2023/07/18 01:42:53;;;;;;;7.68;3.20;;;;;;;13.94;97.47;101853.63;4987749;28;20042;-71
2023/07/18 01:45:23;;;;;;;5.63;2.58;;;;;;;13.92;97.27;101850.31;4999443;28;20041;-71
2023/07/18 01:47:50;;;;;;;6.22;3.00;;;;;;;13.93;97.33;101849.34;4982903;28;20106;-70
2023/07/18 01:50:15;;;;;;;9.73;3.10;;;;;;;13.93;97.46;101850.16;5004699;28;20034;-70
2023/07/18 01:52:41;;;;;;;6.43;3.00;;;;;;;13.94;97.27;101856.22;4976323;28;20443;-70
2023/07/18 01:55:07;;;;;;;6.05;2.97;;;;;;;13.92;97.22;101850.31;4984110;28;20543;-70
2023/07/18 01:57:35;;;;;;;5.82;2.92;;;;;;;13.92;97.29;101839.88;4986284;28;20117;-70
2023/07/18 02:00:03;;;;;;;6.05;2.80;;;;;;;13.92;97.56;101845.09;4998486;28;20113;-70
2023/07/18 02:02:28;;;;;;;8.50;2.63;;;;;;;13.90;97.42;101847.03;4990538;28;20088;-71
2023/07/18 02:04:55;;;;;;;9.70;3.10;;;;;;;13.87;97.70;101842.97;4995057;28;20469;-70
2023/07/18 02:07:21;;;;;;;5.05;2.63;;;;;;;13.89;97.84;101842.81;4995515;28;20053;-71
2023/07/18 02:09:48;;;;;;;5.32;2.90;;;;;;;13.87;97.97;101834.34;4999551;28;20033;-70
2023/07/18 02:12:14;;;;;;;7.93;2.85;;;;;;;13.85;97.97;101831.88;5001231;28;20045;-70
2023/07/18 02:14:39;;;;;;;6.68;2.80;;;;;;;13.85;97.95;101833.66;4995653;28;20037;-70
2023/07/18 02:17:05;;;;;;;6.80;3.53;;;;;;;13.83;97.86;101832.00;4995819;28;20156;-70
2023/07/18 02:19:30;;;;;;;8.32;2.80;;;;;;;13.82;97.82;101830.41;4996535;28;20041;-71
2023/07/18 02:21:56;;;;;;;7.57;3.17;;;;;;;13.79;98.33;101824.66;4992583;28;20038;-70
2023/07/18 02:24:21;;;;;;;8.27;2.95;;;;;;;13.79;98.66;101828.09;5007483;28;20612;-70
2023/07/18 02:26:47;;;;;;;6.20;2.85;;;;;;;13.80;98.87;101834.09;4992219;28;20121;-70
2023/07/18 02:29:13;;;;;;;6.20;2.58;;;;;;;13.77;99.26;101830.03;5008251;28;20036;-70
2023/07/18 02:31:39;;;;;;;7.00;2.90;;;;;;;13.76;99.49;101830.16;4988859;28;20497;-72
2023/07/18 02:34:05;;;;;;;8.40;3.45;;;;;;;13.71;99.96;101828.03;5008519;28;20034;-71
2023/07/18 02:36:31;;;;;;;6.78;3.20;;;;;;;13.70;100.00;101830.78;4993126;28;20052;-70
2023/07/18 02:38:58;;;;;;;9.23;3.30;;;;;;;13.68;100.00;101833.53;4991613;28;20036;-71
2023/07/18 02:41:23;;;;;;;6.57;3.22;;;;;;;13.68;100.00;101824.91;4990797;28;20042;-71
2023/07/18 02:43:49;;;;;;;6.28;3.33;;;;;;;13.70;100.00;101831.59;4993334;28;20030;-70
2023/07/18 02:46:15;;;;;;;8.88;3.30;;;;;;;13.70;100.00;101834.19;5011011;28;20573;-70
2023/07/18 02:48:40;;;;;;;8.00;3.00;;;;;;;13.71;100.00;101832.41;4992626;28;20023;-70
2023/07/18 02:51:05;;;;;;;6.97;2.88;;;;;;;13.68;99.91;101833.53;4989300;28;20409;-70
2023/07/18 02:53:31;;;;;;;6.75;2.80;;;;;;;13.61;99.81;101828.09;4974448;28;20033;-70
2023/07/18 02:55:56;;;;;;;7.72;2.67;;;;;;;13.53;99.44;101824.63;4988200;28;20053;-70
2023/07/18 02:58:22;;;;;;;15.93;2.30;;;;;;;13.43;99.41;101835.13;4990763;28;20487;-70
2023/07/18 03:00:50;;;;;;;9.68;3.13;;;;;;;13.30;99.09;101825.09;4989711;28;20083;-71
2023/07/18 03:03:16;;;;;;;9.18;3.13;;;;;;;13.22;99.13;101830.16;4992628;28;20030;-70
2023/07/18 03:05:41;;;;;;;10.02;3.03;;;;;;;13.16;99.50;101828.97;4975236;28;20463;-71
2023/07/18 03:08:07;;;;;;;11.18;2.78;;;;;;;13.08;99.53;101822.88;4973194;28;20041;-71
2023/07/18 03:10:32;;;;;;;8.85;2.35;;;;;;;12.98;99.53;101815.94;4991084;28;20037;-70
2023/07/18 03:12:58;;;;;;;6.03;2.38;;;;;;;12.90;99.98;101817.63;4981516;28;21566;-71
2023/07/18 03:15:24;;;;;;;6.32;2.03;;;;;;;12.87;100.00;101820.56;4987381;28;20041;-70
2023/07/18 03:17:50;;;;;;;5.82;2.30;;;;;;;12.82;100.00;101828.78;4988739;28;20046;-71
2023/07/18 03:20:19;;;;;;;10.35;2.38;;;;;;;12.82;100.00;101828.78;4990238;28;20944;-70
2023/07/18 03:22:50;;;;;;;7.63;2.85;;;;;;;12.83;100.00;101836.44;4993262;28;20046;-70
2023/07/18 03:25:17;;;;;;;6.32;2.33;;;;;;;12.85;100.00;101837.13;4983560;28;20033;-70
2023/07/18 03:27:44;;;;;;;7.07;2.10;;;;;;;12.88;100.00;101827.38;4991251;28;20157;-70
2023/07/18 03:30:12;;;;;;;8.45;2.80;;;;;;;12.88;100.00;101822.16;4988771;28;20038;-70
2023/07/18 03:32:41;;;;;;;7.40;2.67;;;;;;;12.86;100.00;101835.31;5010562;28;20045;-71
2023/07/18 03:35:07;;;;;;;10.63;2.67;;;;;;;12.85;100.00;101833.72;4994017;28;20092;-71
2023/07/18 03:37:33;;;;;;;5.20;3.15;;;;;;;12.82;99.85;101823.56;5006423;28;20116;-70
2023/07/18 03:39:59;;;;;;;12.88;2.88;;;;;;;12.75;99.63;101825.13;4992854;28;20041;-70
2023/07/18 03:42:26;;;;;;;5.20;2.30;;;;;;;12.66;99.88;101825.03;4992300;28;20631;-70
2023/07/18 03:44:52;;;;;;;7.68;2.97;;;;;;;12.62;99.95;101821.09;5010299;28;20038;-71
2023/07/18 03:47:17;;;;;;;9.25;3.00;;;;;;;12.61;100.00;101824.63;4990781;28;20038;-70
2023/07/18 03:49:43;;;;;;;11.65;2.80;;;;;;;12.62;100.00;101823.69;4988951;28;20076;-71
2023/07/18 03:52:08;;;;;;;8.18;2.75;;;;;;;12.66;100.00;101822.44;4990681;28;20038;-70
2023/07/18 03:54:34;;;;;;;6.15;3.20;;;;;;;12.69;99.72;101823.09;4993194;28;20083;-70
2023/07/18 03:57:00;;;;;;;6.80;3.58;;;;;;;12.70;99.56;101820.38;5004788;28;22012;-70
2023/07/18 03:59:25;;;;;;;7.15;2.75;;;;;;;12.74;99.32;101821.69;4993013;28;20021;-70
2023/07/18 04:01:52;;;;;;;10.85;2.75;;;;;;;12.75;99.21;101817.31;5001960;28;20403;-71
2023/07/18 04:04:17;;;;;;;5.05;2.80;;;;;;;12.76;98.66;101814.56;5006152;28;20050;-70
2023/07/18 04:06:46;;;;;;;7.05;2.92;;;;;;;12.70;98.75;101816.94;5004793;28;20108;-70
2023/07/18 04:09:11;;;;;;;6.43;3.20;;;;;;;12.58;99.18;101811.09;4990883;28;20028;-70
2023/07/18 04:11:38;;;;;;;9.60;2.55;;;;;;;12.53;99.18;101818.53;5006913;28;20030;-71
2023/07/18 04:14:04;;;;;;;7.18;2.75;;;;;;;12.52;99.52;101825.50;4987848;28;20037;-70
2023/07/18 04:16:29;;;;;;;9.32;3.53;;;;;;;12.53;99.44;101818.53;5002004;28;20690;-70
2023/07/18 04:18:55;;;;;;;6.55;3.05;;;;;;;12.55;99.44;101814.00;5004810;28;20023;-71
2023/07/18 04:21:21;;;;;;;6.95;2.90;;;;;;;12.58;99.28;101819.75;5002547;28;20516;-70
2023/07/18 04:23:47;;;;;;;6.95;2.95;;;;;;;12.61;99.09;101816.84;4990607;28;20038;-70
2023/07/18 04:26:13;;;;;;;13.43;3.50;;;;;;;12.62;99.00;101813.28;5006466;28;20515;-71
2023/07/18 04:28:39;;;;;;;6.20;2.88;;;;;;;12.62;99.02;101817.66;4993263;28;20034;-70
2023/07/18 04:31:05;;;;;;;8.20;2.92;;;;;;;12.58;99.08;101817.13;5006120;28;20045;-70
2023/07/18 04:33:34;;;;;;;4.57;2.30;;;;;;;12.54;99.45;101823.56;5007777;28;20113;-70
2023/07/18 04:36:00;;;;;;;12.40;2.97;;;;;;;12.47;100.00;101822.53;4990993;28;20040;-71
2023/07/18 04:38:26;;;;;;;7.05;2.42;;;;;;;12.43;100.00;101821.16;4991873;28;20022;-70
2023/07/18 04:40:51;;;;;;;11.48;2.90;;;;;;;12.41;100.00;101817.88;5002154;28;20057;-70
2023/07/18 04:43:17;;;;;;;6.80;2.70;;;;;;;12.40;100.00;101814.47;4990854;28;20081;-70
2023/07/18 04:45:44;;;;;;;4.90;2.72;;;;;;;12.43;100.00;101823.75;5006894;28;20467;-69
2023/07/18 04:48:19;;;;;;;6.55;2.92;;;;;;;12.44;100.00;101820.19;5010285;28;20038;-70
2023/07/18 04:50:51;;;;;;;11.93;3.30;;;;;;;12.48;100.00;101816.34;5007320;28;20038;-70
2023/07/18 04:53:17;;;;;;;8.07;3.17;;;;;;;12.53;100.00;101818.53;4989483;28;20030;-70
2023/07/18 04:55:44;;;;;;;10.38;3.47;;;;;;;12.58;100.00;101809.34;5004274;28;20463;-70
2023/07/18 04:58:10;;;;;;;6.88;2.78;;;;;;;12.64;100.00;101808.75;4992449;28;20595;-70
2023/07/18 05:00:36;;;;;;;10.13;3.13;;;;;;;12.72;100.00;101802.00;4990030;28;20041;-70
2023/07/18 05:03:02;;;;;;;7.88;2.85;;;;;;;12.80;100.00;101799.47;4972022;28;20083;-70
2023/07/18 05:05:29;;;;;;;5.85;2.60;;;;;;;12.88;100.00;101804.75;4975419;28;20042;-70
2023/07/18 05:07:55;;;;;;;8.68;3.10;;;;;;;12.96;100.00;101794.47;4985750;28;20038;-70
2023/07/18 05:10:22;;;;;;;7.80;2.80;;;;;;;13.05;100.00;101792.72;4985455;28;20037;-70
2023/07/18 05:12:49;;;;;;;7.65;2.90;;;;;;;13.14;100.00;101794.44;4989783;28;20034;-70
2023/07/18 05:15:14;;;;;;;5.68;2.83;;;;;;;13.21;100.00;101795.50;5002765;28;20022;-70
2023/07/18 05:17:40;;;;;;;11.40;3.15;;;;;;;13.31;100.00;101792.03;5003983;28;20046;-70
2023/07/18 05:20:06;;;;;;;9.23;3.13;;;;;;;13.40;100.00;101789.34;4995130;28;20034;-70
2023/07/18 05:22:31;;;;;;;8.80;3.40;;;;;;;13.51;100.00;101788.28;5007598;28;20050;-70
2023/07/18 05:24:57;;;;;;;7.85;3.10;;;;;;;13.60;100.00;101791.78;5004765;28;20025;-70
2023/07/18 05:27:22;;;;;;;7.82;3.13;;;;;;;13.72;100.00;101797.56;5011817;28;20073;-70
2023/07/18 05:29:48;;;;;;;15.85;3.67;;;;;;;13.82;100.00;101793.91;5013107;28;20034;-70
2023/07/18 05:32:14;;;;;;;8.48;3.50;;;;;;;13.91;100.00;101796.53;4989598;28;20565;-70
2023/07/18 05:34:39;;;;;;;10.50;3.35;;;;;;;13.99;100.00;101797.44;5011085;28;20034;-71
2023/07/18 05:37:05;;;;;;;5.25;2.95;;;;;;;14.10;100.00;101796.31;5008004;28;20033;-70
2023/07/18 05:39:31;;;;;;;11.75;3.60;;;;;;;14.23;100.00;101795.09;5007334;28;20041;-70
2023/07/18 05:41:56;;;;;;;10.57;3.50;;;;;;;14.37;100.00;101803.16;5007466;28;20076;-70
2023/07/18 05:44:22;;;;;;;6.63;3.25;;;;;;;14.51;100.00;101799.13;5004209;28;20030;-70
2023/07/18 05:46:47;;;;;;;8.30;3.33;;;;;;;14.64;100.00;101805.72;4975603;28;20065;-70
2023/07/18 05:49:14;;;;;;;10.57;3.35;;;;;;;14.78;100.00;101802.50;4995227;28;20574;-71
2023/07/18 05:51:40;;;;;;;8.55;3.25;;;;;;;14.96;99.28;101802.38;5006600;28;20033;-70
2023/07/18 05:54:05;;;;;;;8.27;3.20;;;;;;;15.18;98.84;101799.16;4993939;28;20504;-71
2023/07/18 05:56:32;;;;;;;8.35;3.95;;;;;;;15.40;96.99;101812.53;4991594;28;20033;-70
2023/07/18 05:58:58;;;;;;;15.15;3.10;;;;;;;15.60;94.63;101799.97;5003904;28;20018;-70
2023/07/18 06:01:23;;;;;;;6.47;2.83;;;;;;;15.84;92.47;101804.38;4988268;28;20496;-71
2023/07/18 06:03:49;;;;;;;13.63;3.53;;;;;;;16.09;89.38;101804.31;5009779;28;20049;-70
2023/07/18 06:06:15;;;;;;;6.55;2.75;;;;;;;16.35;88.94;101801.47;4993093;28;20392;-70
2023/07/18 06:08:41;;;;;;;10.95;2.88;;;;;;;16.55;84.27;101801.84;5006148;28;20034;-70
2023/07/18 06:11:07;;;;;;;6.65;2.40;;;;;;;16.79;83.20;101800.91;4989486;28;20049;-70
2023/07/18 06:13:32;;;;;;;7.80;2.55;;;;;;;16.99;82.60;101798.69;5006428;28;20034;-70
2023/07/18 06:15:58;;;;;;;6.90;2.53;;;;;;;17.20;80.41;101789.38;4993021;28;20050;-71
2023/07/18 06:18:24;;;;;;;9.93;2.83;;;;;;;17.47;81.08;101793.25;4988769;28;20049;-70
2023/07/18 06:20:49;;;;;;;10.35;2.20;;;;;;;17.70;79.15;101796.63;5002826;28;20056;-71
2023/07/18 06:23:15;;;;;;;6.75;2.75;;;;;;;17.90;77.10;101798.75;4988912;28;20026;-70
2023/07/18 06:25:41;;;;;;;5.45;1.80;;;;;;;18.05;76.16;101801.41;4988276;28;20077;-71
2023/07/18 06:28:07;;;;;;;7.78;2.40;;;;;;;18.28;76.33;101796.84;4999624;28;20117;-71
2023/07/18 06:30:33;;;;;;;11.32;2.38;;;;;;;18.51;76.22;101798.53;5007163;28;20041;-70
2023/07/18 06:32:59;;;;;;;10.15;2.20;;;;;;;18.68;73.43;101802.59;4968841;28;20042;-70
2023/07/18 06:35:25;;;;;;;6.57;2.15;;;;;;;18.72;72.16;101799.56;4990988;28;20116;-70
2023/07/18 06:37:51;;;;;;;6.78;2.30;;;;;;;18.93;71.49;101797.00;4989940;28;20485;-70
2023/07/18 06:40:17;;;;;;;12.52;2.10;;;;;;;19.09;69.38;101795.13;4990018;28;20028;-71
2023/07/18 06:42:43;;;;;;;32.72;18.73;;;;;;;19.28;68.54;101789.22;5003459;28;20039;-71
2023/07/18 06:45:09;;;;;;;11.55;3.10;;;;;;;19.54;67.01;101783.34;4974111;28;20497;-70
2023/07/18 06:47:35;;;;;;;6.15;2.72;;;;;;;19.79;66.17;101785.56;5003122;28;20129;-70
2023/07/18 06:50:01;;;;;;;9.25;2.33;;;;;;;19.94;65.21;101786.25;5003790;28;20029;-70
2023/07/18 06:52:26;;;;;;;9.80;1.90;;;;;;;20.09;62.86;101775.59;4986943;28;20073;-70
2023/07/18 06:54:54;;;;;;;5.38;1.90;;;;;;;20.39;63.09;101776.13;4990556;28;20704;-70
2023/07/18 06:57:19;;;;;;;6.32;1.80;;;;;;;20.64;62.85;101772.97;5005999;28;20100;-70
2023/07/18 06:59:45;;;;;;;9.13;1.90;;;;;;;20.75;60.35;101775.03;4986099;28;20026;-71
2023/07/18 07:02:11;;;;;;;9.73;1.70;;;;;;;21.16;62.72;101771.41;5006760;28;20069;-70
2023/07/18 07:04:39;;;;;;;7.95;2.05;;;;;;;21.43;57.57;101771.41;5006522;28;20034;-70
2023/07/18 07:07:08;;;;;;;6.68;1.45;;;;;;;21.66;54.64;101772.81;4972157;28;20548;-70
2023/07/18 07:09:34;;;;;;;5.07;1.30;;;;;;;21.66;54.09;101775.47;4989131;28;20065;-70
2023/07/18 07:12:00;;;;;;;6.53;1.83;;;;;;;22.09;53.21;101764.38;5004497;28;20048;-70
2023/07/18 07:14:26;;;;;;;6.57;1.52;;;;;;;22.12;51.61;101764.75;4972484;28;20041;-71
2023/07/18 07:16:51;;;;;;;5.57;2.00;;;;;;;22.42;53.48;101774.81;4992397;28;20045;-70
2023/07/18 07:19:17;;;;;;;4.43;1.35;;;;;;;22.79;49.67;101768.91;5006854;28;20465;-70
2023/07/18 07:21:43;;;;;;;7.20;1.92;;;;;;;23.19;50.14;101774.75;4972534;28;20029;-70
2023/07/18 07:24:08;;;;;;;4.20;1.15;;;;;;;23.30;50.63;101768.75;4984708;28;20528;-70
2023/07/18 07:26:37;;;;;;;3.22;1.20;;;;;;;23.49;50.01;101772.22;5002683;28;20042;-71
2023/07/18 07:29:04;;;;;;;4.97;1.30;;;;;;;23.59;49.41;101769.06;4987443;28;20119;-69
2023/07/18 07:31:30;;;;;;;4.22;1.20;;;;;;;23.67;48.74;101770.63;4984934;28;20073;-70
2023/07/18 07:33:56;;;;;;;4.38;1.50;;;;;;;23.74;48.87;101763.41;5006280;28;20109;-69
2023/07/18 07:36:21;;;;;;;5.88;1.02;;;;;;;24.08;46.64;101762.03;4986724;28;20200;-69
2023/07/18 07:38:48;;;;;;;6.32;1.08;;;;;;;24.23;44.86;101768.78;4990279;28;20049;-69
2023/07/18 07:41:14;;;;;;;5.40;1.65;;;;;;;24.07;46.73;101756.94;4988539;28;20050;-69
2023/07/18 07:43:39;;;;;;;2.88;0.90;;;;;;;24.27;46.71;101757.50;4986948;28;20034;-69
2023/07/18 07:46:05;;;;;;;3.67;1.30;;;;;;;24.51;45.12;101754.94;4986560;28;20044;-69
2023/07/18 07:48:30;;;;;;;6.95;1.33;;;;;;;24.82;42.97;101750.41;4979376;28;20042;-70
2023/07/18 07:50:58;;;;;;;8.63;0.93;;;;;;;25.04;43.34;101745.38;4986392;28;22528;-70
2023/07/18 07:53:23;;;;;;;4.50;1.20;;;;;;;25.14;43.71;101736.84;5008546;28;20064;-69
2023/07/18 07:55:49;;;;;;;6.90;1.20;;;;;;;25.39;41.62;101734.78;4985379;28;20034;-69
2023/07/18 07:58:15;;;;;;;3.75;1.13;;;;;;;25.67;42.64;101730.56;4991353;28;20045;-69
2023/07/18 08:00:41;;;;;;;3.78;1.00;;;;;;;25.58;43.53;101739.94;4987477;28;20044;-69
2023/07/18 08:03:06;;;;;;;5.13;1.05;;;;;;;25.69;43.15;101733.00;4967509;28;20042;-69
2023/07/18 08:05:31;;;;;;;3.78;1.05;;;;;;;25.70;41.90;101738.06;4988120;28;20633;-69
2023/07/18 08:07:57;;;;;;;2.70;0.90;;;;;;;25.75;42.95;101730.22;4989477;28;20042;-69
2023/07/18 08:10:22;;;;;;;4.55;0.98;;;;;;;25.96;41.92;101733.31;4989982;28;20037;-69
2023/07/18 08:12:48;;;;;;;5.22;1.00;;;;;;;26.13;41.14;101728.03;4988417;28;20378;-69
2023/07/18 08:15:13;;;;;;;3.20;1.08;;;;;;;26.18;41.94;101734.25;5004465;28;20044;-69
2023/07/18 08:17:39;;;;;;;3.35;1.30;;;;;;;26.06;41.76;101730.81;5001577;28;20037;-69
2023/07/18 08:20:07;;;;;;;4.68;1.10;;;;;;;26.19;40.92;101724.41;5003544;28;20365;-69
2023/07/18 08:22:33;;;;;;;5.40;1.23;;;;;;;26.27;39.10;101729.34;4971123;28;20576;-69
2023/07/18 08:24:59;;;;;;;5.70;1.17;;;;;;;25.93;40.24;101723.94;4972407;28;20037;-69
2023/07/18 08:27:24;;;;;;;6.03;1.58;;;;;;;26.32;40.54;101731.28;4976035;28;20173;-69
2023/07/18 08:29:50;;;;;;;7.38;1.40;;;;;;;26.38;40.94;101719.69;4992284;28;20033;-69
2023/07/18 08:32:15;;;;;;;4.00;0.90;;;;;;;26.52;40.65;101718.34;5002918;28;20103;-68
2023/07/18 08:34:41;;;;;;;4.97;1.20;;;;;;;26.59;39.53;101719.00;5007853;28;20473;-69
2023/07/18 08:37:09;;;;;;;9.85;1.02;;;;;;;26.79;40.16;101720.41;4976725;28;20044;-69
2023/07/18 08:39:35;;;;;;;5.55;1.00;;;;;;;26.58;39.73;101719.25;5003221;28;20045;-69
2023/07/18 08:42:04;;;;;;;4.35;1.00;;;;;;;26.60;40.25;101722.50;4989172;28;20038;-69
2023/07/18 08:44:30;;;;;;;2.85;1.33;;;;;;;26.44;40.64;101712.63;4991049;28;20044;-69
2023/07/18 08:46:56;;;;;;;7.85;1.13;;;;;;;26.89;40.73;101707.25;4970876;28;20404;-69
2023/07/18 08:49:28;;;;;;;3.13;0.80;;;;;;;27.03;41.13;101710.38;4990022;28;20034;-68
2023/07/18 08:51:54;;;;;;;2.90;1.15;;;;;;;27.12;38.14;101708.88;5005269;28;20057;-69
2023/07/18 08:54:19;;;;;;;5.15;0.90;;;;;;;27.27;39.24;101710.97;5001292;28;20117;-69
2023/07/18 08:56:45;;;;;;;2.25;0.85;;;;;;;26.99;38.13;101699.41;5004104;28;20145;-69
2023/07/18 08:59:12;;;;;;;6.97;1.10;;;;;;;27.34;39.63;101692.19;4987376;28;20039;-69
2023/07/18 09:01:48;;;;;;;5.78;0.82;;;;;;;27.33;38.55;101696.72;4985297;28;20524;-69
2023/07/18 09:04:14;;;;;;;6.60;1.05;;;;;;;26.95;39.64;101689.50;5005217;28;20061;-69
2023/07/18 09:06:59;;;;;;;2.78;1.05;;;;;;;26.13;41.00;101696.16;5001662;28;20530;-68
2023/07/18 09:09:25;;;;;;;3.38;1.10;;;;;;;25.74;39.70;101682.63;4984279;28;20034;-69
2023/07/18 09:11:59;;;;;;;2.85;0.73;;;;;;;25.53;40.01;101684.09;4982368;28;20049;-69
2023/07/18 09:14:30;;;;;;;60.30;29.73;;;;;;;25.63;40.37;101689.59;4987219;28;20034;-69
2023/07/18 09:16:58;;;;;;;7.47;4.72;;;;;;;25.65;42.09;101671.56;4985761;28;20045;-70
2023/07/18 09:19:36;;;;;;;3.40;1.60;;;;;;;26.06;41.11;101667.06;4986172;28;20038;-69
2023/07/18 09:22:03;;;;;;;5.60;1.20;;;;;;;25.90;39.97;101671.28;4987066;28;20527;-69
2023/07/18 09:24:31;;;;;;;3.92;0.90;;;;;;;26.17;39.87;101668.84;4983973;28;20118;-69
2023/07/18 09:26:57;;;;;;;2.80;0.90;;;;;;;26.13;38.08;101673.03;4999796;28;20132;-69
2023/07/18 09:29:25;;;;;;;3.63;1.10;;;;;;;25.85;41.02;101671.16;4990291;28;20041;-69
2023/07/18 09:31:50;;;;;;;3.28;1.35;;;;;;;25.66;42.29;101665.25;4988584;28;20033;-69
2023/07/18 09:34:18;;;;;;;7.15;1.00;;;;;;;25.70;42.09;101677.00;4988949;28;20049;-69
2023/07/18 09:36:55;;;;;;;6.57;1.15;;;;;;;26.05;43.30;101684.06;4983219;28;20400;-69
2023/07/18 09:39:22;;;;;;;5.38;1.50;;;;;;;26.33;41.88;101675.22;4986324;28;20383;-68
2023/07/18 09:41:49;;;;;;;2.05;0.95;;;;;;;26.80;39.45;101674.13;5003991;28;20042;-70
2023/07/18 09:44:16;;;;;;;4.45;1.02;;;;;;;27.23;40.47;101672.56;4989080;28;20180;-69
2023/07/18 09:46:43;;;;;;;6.32;1.70;;;;;;;27.04;38.24;101672.06;4967217;28;20172;-69
2023/07/18 09:49:09;;;;;;;3.30;1.00;;;;;;;26.63;38.63;101668.81;4980055;28;20045;-70
2023/07/18 09:51:37;;;;;;;3.97;1.00;;;;;;;26.40;39.12;101669.75;5002322;28;20592;-69
2023/07/18 09:54:05;;;;;;;2.90;1.50;;;;;;;25.87;40.28;101668.28;4986172;28;20044;-69
2023/07/18 09:56:33;;;;;;;3.08;1.02;;;;;;;25.47;40.92;101671.75;4985788;28;20107;-69
2023/07/18 09:59:04;;;;;;;7.05;1.27;;;;;;;25.37;42.73;101670.50;4984798;28;20030;-70
2023/07/18 10:01:32;;;;;;;3.20;1.25;;;;;;;25.24;42.26;101665.44;4984469;28;20045;-70
2023/07/18 10:03:58;;;;;;;6.45;1.33;;;;;;;24.92;43.56;101671.09;4986659;28;20038;-70
2023/07/18 10:06:25;;;;;;;3.28;0.93;;;;;;;24.60;43.94;101674.09;5004286;28;20034;-69
2023/07/18 10:08:53;;;;;;;5.03;1.25;;;;;;;24.42;44.51;101674.13;4990753;28;20045;-69
2023/07/18 10:11:18;;;;;;;3.72;1.17;;;;;;;24.39;45.34;101662.16;4988553;28;20042;-69
2023/07/18 10:14:05;;;;;;;5.13;1.08;;;;;;;24.60;44.96;101658.19;4991222;28;20512;-70
2023/07/18 10:16:34;;;;;;;1.85;0.80;;;;;;;24.55;43.92;101650.09;4986100;28;20041;-70
2023/07/18 10:19:18;;;;;;;4.88;1.17;;;;;;;24.76;44.24;101653.22;5008441;28;20026;-69
2023/07/18 10:21:46;;;;;;;5.97;1.23;;;;;;;24.99;45.53;101649.75;4987145;28;20034;-69
2023/07/18 10:24:21;;;;;;;4.07;1.42;;;;;;;24.99;43.36;101649.75;4972607;28;20163;-69
2023/07/18 10:26:58;;;;;;;2.97;1.50;;;;;;;25.09;43.55;101631.41;4986748;28;20056;-69
2023/07/18 10:29:23;;;;;;;5.57;1.58;;;;;;;25.00;43.24;101623.00;5003825;28;20124;-69
2023/07/18 10:31:49;;;;;;;7.30;2.55;;;;;;;24.92;43.66;101617.22;4987444;28;20034;-69
2023/07/18 10:34:16;;;;;;;2.92;1.17;;;;;;;24.70;44.61;101628.44;5004721;28;20029;-69
2023/07/18 10:36:54;;;;;;;6.75;1.73;;;;;;;24.30;45.07;101631.72;5004978;28;20041;-69
2023/07/18 10:39:34;;;;;;;9.00;1.77;;;;;;;24.46;45.53;101633.69;4995441;28;20033;-69
2023/07/18 10:42:29;;;;;;;1.60;1.00;;;;;;;24.28;46.82;101629.28;4988901;28;20038;-69
2023/07/18 10:44:59;;;;;;;3.30;1.33;;;;;;;24.18;45.09;101626.38;5001669;28;20042;-69
2023/07/18 10:47:27;;;;;;;5.05;1.10;;;;;;;24.06;44.00;101615.75;4988966;28;21288;-69
2023/07/18 10:49:53;;;;;;;6.47;1.65;;;;;;;24.04;44.21;101615.19;5006224;28;20048;-69
2023/07/18 10:52:21;;;;;;;4.05;1.27;;;;;;;24.14;45.01;101614.63;4985201;28;20735;-68
2023/07/18 10:54:58;;;;;;;4.40;1.10;;;;;;;24.15;46.06;101608.28;4988879;28;20042;-69
2023/07/18 10:57:28;;;;;;;8.38;2.47;;;;;;;24.07;46.35;101598.00;5004133;28;20192;-69
2023/07/18 10:59:54;;;;;;;4.72;1.48;;;;;;;24.08;44.95;101594.34;4990948;28;20041;-69
2023/07/18 11:02:21;;;;;;;5.03;1.50;;;;;;;24.22;45.12;101597.59;4987609;28;20042;-69
2023/07/18 11:04:47;;;;;;;4.88;1.23;;;;;;;24.44;42.38;101592.56;4987382;28;20493;-69
2023/07/18 11:07:13;;;;;;;5.60;1.20;;;;;;;24.77;45.74;101588.53;4986644;28;20053;-68
2023/07/18 11:09:40;;;;;;;5.28;1.48;;;;;;;25.10;44.16;101582.63;4984447;28;20034;-68
2023/07/18 11:12:14;;;;;;;4.97;1.55;;;;;;;25.19;43.26;101585.72;4969663;28;20045;-69
2023/07/18 11:14:40;;;;;;;5.72;1.35;;;;;;;24.68;41.29;101588.91;4986575;28;20157;-68
2023/07/18 11:17:12;;;;;;;4.28;1.33;;;;;;;24.56;43.95;101584.63;4985641;28;20529;-70
2023/07/18 11:19:38;;;;;;;6.90;1.33;;;;;;;24.40;44.20;101589.53;5005113;28;20033;-69